Time;durP1;ratioP1;P1;durP2;ratioP2;P2;SDS_P1;SDS_P2;PMS_P1;PMS_P2;Temp;Humidity;BMP_temperature;BMP_pressure;BME280_temperature;BME280_humidity;BME280_pressure;Samples;Min_cycle;Max_cycle;Signal;HPM_P1;HPM_P2
2023/05/12 00:00:56;;;;;;;15.00;13.50;;;11.10;99.90;;;;;;5076111;28;20091;-61
2023/05/12 00:03:22;;;;;;;16.52;12.55;;;11.10;99.90;;;;;;5029981;28;20047;-61
2023/05/12 00:05:48;;;;;;;16.08;13.40;;;11.10;99.90;;;;;;5055881;28;20079;-60
2023/05/12 00:08:14;;;;;;;14.23;12.93;;;11.10;99.90;;;;;;5076948;28;20154;-60
2023/05/12 00:10:40;;;;;;;15.23;12.38;;;11.10;99.90;;;;;;5076610;28;20493;-61
2023/05/12 00:13:07;;;;;;;17.55;13.32;;;11.00;99.90;;;;;;5074734;28;20016;-60
2023/05/12 00:15:33;;;;;;;20.38;12.73;;;11.00;99.90;;;;;;5076571;28;20032;-61
2023/05/12 00:17:58;;;;;;;13.75;12.43;;;11.00;99.90;;;;;;5078082;28;20020;-62
2023/05/12 00:20:24;;;;;;;16.75;12.35;;;11.00;99.90;;;;;;5076847;28;20024;-61
2023/05/12 00:22:50;;;;;;;15.32;11.35;;;10.90;99.90;;;;;;5059275;28;20032;-61
2023/05/12 00:25:15;;;;;;;16.95;12.77;;;10.90;99.90;;;;;;5078272;28;20028;-61
2023/05/12 00:27:41;;;;;;;22.90;13.02;;;10.90;99.90;;;;;;5081616;28;20039;-61
2023/05/12 00:30:07;;;;;;;19.75;12.95;;;10.90;99.90;;;;;;5078968;28;20111;-62
2023/05/12 00:32:33;;;;;;;18.08;13.90;;;10.90;99.90;;;;;;5081465;28;20141;-62
2023/05/12 00:34:58;;;;;;;17.35;13.48;;;10.90;99.90;;;;;;5061651;28;20038;-61
2023/05/12 00:37:24;;;;;;;15.65;13.93;;;10.90;99.90;;;;;;5081208;28;20492;-62
2023/05/12 00:39:50;;;;;;;16.27;13.65;;;10.90;99.90;;;;;;5083023;28;20062;-61
2023/05/12 00:42:15;;;;;;;17.02;13.30;;;10.90;99.90;;;;;;5079865;28;20016;-62
2023/05/12 00:44:41;;;;;;;33.85;13.63;;;11.00;99.90;;;;;;5077641;28;20032;-62
2023/05/12 00:47:08;;;;;;;19.52;13.55;;;11.00;99.90;;;;;;5080250;28;20028;-61
2023/05/12 00:49:34;;;;;;;17.38;13.85;;;11.00;99.90;;;;;;5080766;28;20035;-62
2023/05/12 00:52:02;;;;;;;16.02;13.63;;;10.90;99.90;;;;;;5083916;28;20012;-62
2023/05/12 00:54:29;;;;;;;16.58;14.30;;;11.00;99.90;;;;;;5079654;28;20031;-61
2023/05/12 00:56:54;;;;;;;25.05;13.75;;;11.00;99.90;;;;;;5077067;28;20123;-61
2023/05/12 00:59:20;;;;;;;17.00;14.15;;;11.00;99.90;;;;;;5079060;28;20170;-60
2023/05/12 01:01:49;;;;;;;23.02;15.88;;;11.00;99.90;;;;;;5081343;28;20031;-61
2023/05/12 01:04:14;;;;;;;20.27;15.00;;;11.00;99.90;;;;;;5079969;28;20071;-61
2023/05/12 01:07:08;;;;;;;24.90;14.52;;;11.00;99.90;;;;;;5082599;28;20024;-62
2023/05/12 01:09:34;;;;;;;18.75;14.43;;;11.00;99.90;;;;;;5070719;28;20056;-61
2023/05/12 01:12:00;;;;;;;21.77;15.27;;;11.00;99.90;;;;;;5076484;28;20028;-62
2023/05/12 01:14:26;;;;;;;21.75;15.38;;;11.00;99.90;;;;;;5066678;28;20035;-62
2023/05/12 01:16:53;;;;;;;20.13;14.52;;;10.90;99.90;;;;;;5080349;28;20032;-61
2023/05/12 01:19:41;;;;;;;18.48;15.00;;;11.00;99.90;;;;;;5078805;28;20089;-62
2023/05/12 01:22:08;;;;;;;20.73;14.55;;;10.90;99.90;;;;;;5077210;28;20036;-61
2023/05/12 01:24:44;;;;;;;15.43;13.93;;;10.90;99.90;;;;;;5077033;28;20115;-63
2023/05/12 01:27:10;;;;;;;26.35;14.52;;;10.90;99.90;;;;;;5076986;28;20032;-62
2023/05/12 01:29:37;;;;;;;19.17;14.25;;;10.90;99.90;;;;;;5077178;28;20499;-61
2023/05/12 01:32:03;;;;;;;14.90;13.27;;;10.90;99.90;;;;;;5080587;28;20036;-62
2023/05/12 01:34:29;;;;;;;17.60;13.73;;;10.80;99.90;;;;;;5079518;28;20029;-61
2023/05/12 01:36:54;;;;;;;16.20;13.38;;;10.90;99.90;;;;;;5077345;28;20055;-60
2023/05/12 01:39:20;;;;;;;14.65;13.38;;;10.80;99.90;;;;;;5079068;28;20028;-61
2023/05/12 01:41:46;;;;;;;16.33;13.32;;;10.80;99.90;;;;;;5076667;28;20059;-61
2023/05/12 01:44:11;;;;;;;15.50;13.77;;;10.80;99.90;;;;;;5077587;28;20033;-61
2023/05/12 01:46:37;;;;;;;15.18;13.68;;;10.80;99.90;;;;;;5079364;28;20492;-61
2023/05/12 01:49:03;;;;;;;14.43;12.98;;;10.80;99.90;;;;;;5076984;28;20029;-61
2023/05/12 01:51:28;;;;;;;16.10;12.80;;;10.80;99.90;;;;;;5077521;28;20055;-61
2023/05/12 01:53:54;;;;;;;14.52;13.15;;;10.80;99.90;;;;;;5078729;28;20040;-61
2023/05/12 01:56:20;;;;;;;16.35;13.15;;;10.80;99.90;;;;;;5079715;28;20412;-61
2023/05/12 01:58:46;;;;;;;15.82;13.88;;;10.80;99.90;;;;;;5079387;28;20689;-61
2023/05/12 02:01:11;;;;;;;18.83;14.32;;;10.80;99.90;;;;;;5066637;28;20024;-62
2023/05/12 02:03:37;;;;;;;15.80;12.52;;;10.80;99.90;;;;;;5075955;28;20033;-61
2023/05/12 02:06:03;;;;;;;20.63;13.32;;;10.80;99.90;;;;;;5081389;28;20028;-63
2023/05/12 02:08:28;;;;;;;14.43;12.88;;;10.80;99.90;;;;;;5081854;28;20016;-62
2023/05/12 02:11:07;;;;;;;14.50;13.00;;;10.80;99.90;;;;;;5077778;28;20051;-63
2023/05/12 02:13:33;;;;;;;19.25;13.02;;;10.80;99.90;;;;;;5077086;28;20016;-62
2023/05/12 02:15:59;;;;;;;22.02;13.77;;;10.80;99.90;;;;;;5079929;28;20024;-62
2023/05/12 02:18:25;;;;;;;18.30;13.75;;;10.80;99.90;;;;;;5078151;28;20039;-62
2023/05/12 02:20:51;;;;;;;15.32;13.75;;;10.80;99.90;;;;;;5076778;28;20032;-61
2023/05/12 02:23:16;;;;;;;14.82;12.73;;;10.80;99.90;;;;;;5077324;28;20043;-61
2023/05/12 02:25:42;;;;;;;26.95;13.25;;;10.80;99.90;;;;;;5057708;28;20050;-61
2023/05/12 02:28:09;;;;;;;21.50;13.30;;;10.70;99.90;;;;;;5078323;28;20042;-62
2023/05/12 02:30:43;;;;;;;30.48;13.48;;;10.80;99.90;;;;;;5078718;28;20032;-62
2023/05/12 02:33:08;;;;;;;20.73;13.57;;;10.80;99.90;;;;;;5078951;28;20053;-62
2023/05/12 02:35:34;;;;;;;15.57;13.82;;;10.80;99.90;;;;;;5074480;28;20036;-63
2023/05/12 02:37:59;;;;;;;17.30;12.93;;;10.80;99.90;;;;;;5071259;28;20039;-64
2023/05/12 02:40:25;;;;;;;15.15;12.80;;;10.70;99.90;;;;;;5083757;28;20032;-62
2023/05/12 02:42:51;;;;;;;18.73;14.38;;;10.70;99.90;;;;;;5075378;28;20113;-61
2023/05/12 02:45:17;;;;;;;21.90;13.88;;;10.80;99.90;;;;;;5078193;28;20429;-59
2023/05/12 02:47:42;;;;;;;16.02;13.95;;;10.70;99.90;;;;;;5062245;28;20547;-60
2023/05/12 02:50:08;;;;;;;13.32;12.13;;;10.70;99.90;;;;;;5077632;28;20353;-61
2023/05/12 02:52:34;;;;;;;16.67;12.68;;;10.80;99.90;;;;;;5078264;28;20500;-61
2023/05/12 02:55:00;;;;;;;14.20;12.65;;;10.80;99.90;;;;;;5061825;28;20032;-60
2023/05/12 02:57:31;;;;;;;14.45;13.00;;;10.70;99.90;;;;;;5076068;28;20111;-60
2023/05/12 02:59:57;;;;;;;14.50;13.10;;;10.80;99.90;;;;;;5077489;28;20546;-60
2023/05/12 03:02:23;;;;;;;19.55;14.15;;;10.80;99.90;;;;;;5075942;28;20060;-61
2023/05/12 03:04:48;;;;;;;15.68;14.18;;;10.70;99.90;;;;;;5079282;28;20118;-61
2023/05/12 03:07:14;;;;;;;16.02;13.98;;;10.70;99.90;;;;;;5079802;28;20508;-61
2023/05/12 03:09:40;;;;;;;16.42;13.82;;;10.70;99.90;;;;;;5080313;28;20028;-61
2023/05/12 03:12:06;;;;;;;15.75;13.98;;;10.70;99.90;;;;;;5079795;28;20431;-61
2023/05/12 03:14:32;;;;;;;15.90;14.30;;;10.70;99.90;;;;;;5073045;28;20032;-61
2023/05/12 03:16:58;;;;;;;16.02;14.00;;;10.70;99.90;;;;;;5073854;28;20496;-60
2023/05/12 03:19:23;;;;;;;14.68;13.15;;;10.70;99.90;;;;;;5061899;28;20028;-62
2023/05/12 03:21:49;;;;;;;15.90;14.10;;;10.70;99.90;;;;;;5076137;28;20046;-61
2023/05/12 03:24:15;;;;;;;16.15;13.38;;;10.60;99.90;;;;;;5076640;28;20115;-61
2023/05/12 03:26:41;;;;;;;21.30;14.95;;;10.60;99.90;;;;;;5076482;28;20119;-62
2023/05/12 03:29:06;;;;;;;16.85;14.75;;;10.60;99.90;;;;;;5078699;28;20036;-60
2023/05/12 03:31:32;;;;;;;22.67;14.55;;;10.60;99.90;;;;;;5077531;28;20020;-61
2023/05/12 03:33:58;;;;;;;25.20;14.95;;;10.60;99.90;;;;;;5077320;28;20031;-62
2023/05/12 03:36:23;;;;;;;16.85;14.30;;;10.60;99.90;;;;;;5071955;28;20505;-61
2023/05/12 03:38:49;;;;;;;13.98;12.68;;;10.60;99.90;;;;;;5075264;28;20028;-61
2023/05/12 03:41:16;;;;;;;26.08;14.27;;;10.60;99.90;;;;;;5074426;28;20027;-62
2023/05/12 03:43:41;;;;;;;15.27;13.32;;;10.70;99.90;;;;;;5075964;28;20452;-61
2023/05/12 03:46:07;;;;;;;22.63;14.35;;;10.70;99.90;;;;;;5075052;28;20062;-61
2023/05/12 03:48:33;;;;;;;32.60;15.43;;;10.70;99.90;;;;;;5059778;28;20610;-61
2023/05/12 03:50:58;;;;;;;17.13;14.00;;;10.60;99.90;;;;;;5078448;28;20038;-62
2023/05/12 03:53:24;;;;;;;15.43;13.88;;;10.60;99.90;;;;;;5076005;28;20106;-62
2023/05/12 03:55:50;;;;;;;14.63;12.98;;;10.60;99.90;;;;;;5076197;28;20138;-61
2023/05/12 03:58:15;;;;;;;20.02;13.85;;;10.60;99.90;;;;;;5075660;28;20020;-61
2023/05/12 04:00:41;;;;;;;28.20;14.07;;;10.60;99.90;;;;;;5074526;28;20054;-62
2023/05/12 04:03:07;;;;;;;24.42;15.50;;;10.60;99.90;;;;;;5075621;28;20047;-63
2023/05/12 04:05:32;;;;;;;24.65;14.80;;;10.60;99.90;;;;;;5076438;28;20028;-62
2023/05/12 04:07:58;;;;;;;20.70;15.30;;;10.60;99.90;;;;;;5076802;28;20029;-61
2023/05/12 04:10:24;;;;;;;17.05;14.88;;;10.60;99.90;;;;;;5079930;28;20024;-62
2023/05/12 04:12:51;;;;;;;22.30;14.77;;;10.60;99.90;;;;;;5074183;28;20516;-62
2023/05/12 04:15:16;;;;;;;20.45;16.17;;;10.60;99.90;;;;;;5070251;28;20044;-62
2023/05/12 04:17:42;;;;;;;21.10;15.35;;;10.70;99.90;;;;;;5078394;28;20435;-61
2023/05/12 04:20:08;;;;;;;24.58;15.43;;;10.70;99.90;;;;;;5075321;28;20407;-62
2023/05/12 04:22:34;;;;;;;17.77;15.32;;;10.70;99.90;;;;;;5076572;28;20017;-62
2023/05/12 04:25:00;;;;;;;16.92;14.95;;;10.80;99.90;;;;;;5077436;28;20472;-62
2023/05/12 04:27:25;;;;;;;16.35;14.38;;;10.80;99.90;;;;;;5073916;28;20101;-62
2023/05/12 04:29:51;;;;;;;18.73;14.60;;;10.80;99.90;;;;;;5075834;28;20043;-62
2023/05/12 04:32:17;;;;;;;15.43;13.85;;;10.80;99.90;;;;;;5075271;28;20107;-62
2023/05/12 04:34:42;;;;;;;21.05;15.45;;;10.70;99.90;;;;;;5077095;28;20558;-62
2023/05/12 04:37:08;;;;;;;17.00;14.75;;;10.70;99.90;;;;;;5074615;28;20090;-61
2023/05/12 04:39:34;;;;;;;19.25;15.68;;;10.80;99.90;;;;;;5076574;28;20032;-61
2023/05/12 04:42:03;;;;;;;17.35;15.65;;;10.80;99.90;;;;;;5061474;28;20039;-63
2023/05/12 04:44:29;;;;;;;19.40;16.83;;;10.80;99.90;;;;;;5074891;28;20032;-63
2023/05/12 04:46:55;;;;;;;20.35;16.85;;;10.80;99.90;;;;;;5075527;28;20031;-61
2023/05/12 04:49:21;;;;;;;17.85;16.15;;;10.90;99.90;;;;;;5077220;28;20448;-61
2023/05/12 04:51:47;;;;;;;21.45;18.73;;;10.90;99.90;;;;;;5074685;28;20032;-62
2023/05/12 04:54:12;;;;;;;18.63;16.75;;;10.90;99.90;;;;;;5076609;28;20027;-62
2023/05/12 04:56:38;;;;;;;18.63;16.83;;;10.90;99.90;;;;;;5075409;28;20106;-62
2023/05/12 04:59:05;;;;;;;22.77;16.70;;;11.00;99.90;;;;;;5077292;28;20040;-62
2023/05/12 05:01:30;;;;;;;21.00;16.98;;;11.00;99.90;;;;;;5075931;28;20119;-63
2023/05/12 05:03:56;;;;;;;29.38;16.77;;;11.00;99.90;;;;;;5074627;28;20131;-61
2023/05/12 05:06:22;;;;;;;22.48;17.00;;;11.00;99.90;;;;;;5076274;28;20515;-63
2023/05/12 05:08:47;;;;;;;18.10;16.15;;;11.00;99.90;;;;;;5074475;28;20036;-62
2023/05/12 05:11:13;;;;;;;17.88;16.08;;;11.00;99.90;;;;;;5076904;28;20025;-61
2023/05/12 05:13:39;;;;;;;18.15;15.02;;;11.00;99.90;;;;;;5079278;28;20020;-61
2023/05/12 05:16:05;;;;;;;15.35;13.23;;;11.10;99.90;;;;;;5084184;28;20103;-62
2023/05/12 05:18:31;;;;;;;19.38;13.55;;;11.10;99.90;;;;;;5073501;28;20055;-61
2023/05/12 05:20:57;;;;;;;23.73;14.48;;;11.20;99.90;;;;;;5065032;28;20115;-61
2023/05/12 05:23:22;;;;;;;14.27;13.02;;;11.20;99.90;;;;;;5065575;28;20039;-62
2023/05/12 05:25:48;;;;;;;21.88;14.05;;;11.20;99.90;;;;;;5063456;28;20025;-61
2023/05/12 05:28:13;;;;;;;17.20;14.70;;;11.20;99.90;;;;;;5065037;28;20029;-61
2023/05/12 05:30:39;;;;;;;28.70;15.38;;;11.30;99.90;;;;;;5063843;28;20431;-61
2023/05/12 05:33:05;;;;;;;25.45;15.07;;;11.30;99.90;;;;;;5065079;28;20388;-62
2023/05/12 05:35:30;;;;;;;18.50;15.63;;;11.40;99.90;;;;;;5067877;28;20511;-61
2023/05/12 05:37:56;;;;;;;15.32;14.00;;;11.50;99.90;;;;;;5061911;28;20433;-61
2023/05/12 05:40:22;;;;;;;15.00;13.25;;;11.60;99.90;;;;;;5047330;28;20021;-61
2023/05/12 05:42:47;;;;;;;14.90;13.45;;;11.60;99.90;;;;;;5065263;28;20033;-61
2023/05/12 05:45:13;;;;;;;16.10;12.07;;;11.60;99.90;;;;;;5071729;28;20020;-62
2023/05/12 05:47:39;;;;;;;13.15;12.02;;;11.70;99.90;;;;;;5083207;28;20024;-62
2023/05/12 05:50:05;;;;;;;11.88;10.77;;;11.80;99.90;;;;;;5080133;28;20105;-61
2023/05/12 05:52:31;;;;;;;12.15;11.18;;;11.90;99.90;;;;;;5082341;28;20079;-62
2023/05/12 05:54:57;;;;;;;13.05;10.18;;;11.90;99.90;;;;;;5082945;28;20055;-61
2023/05/12 05:57:22;;;;;;;12.48;11.38;;;12.00;99.90;;;;;;5077857;28;20066;-61
2023/05/12 05:59:48;;;;;;;12.98;11.88;;;12.00;99.90;;;;;;5082021;28;20028;-62
2023/05/12 06:02:14;;;;;;;12.18;11.10;;;12.10;99.90;;;;;;5081430;28;20059;-62
2023/05/12 06:04:40;;;;;;;11.85;10.95;;;12.20;99.90;;;;;;5061638;28;20020;-61
2023/05/12 06:07:05;;;;;;;11.50;10.60;;;12.30;99.90;;;;;;5079952;28;20045;-62
2023/05/12 06:09:31;;;;;;;10.30;8.50;;;12.40;99.90;;;;;;5078902;28;20404;-62
2023/05/12 06:11:57;;;;;;;11.45;10.38;;;12.40;99.90;;;;;;5080375;28;20040;-62
2023/05/12 06:14:22;;;;;;;11.77;9.45;;;12.40;99.90;;;;;;5081669;28;20032;-63
2023/05/12 06:16:48;;;;;;;11.73;9.55;;;12.50;99.90;;;;;;5073435;28;20064;-62
2023/05/12 06:19:14;;;;;;;10.45;9.48;;;12.70;99.90;;;;;;5068453;28;20017;-62
2023/05/12 06:21:40;;;;;;;9.10;7.72;;;12.80;99.90;;;;;;5076043;28;20102;-60
2023/05/12 06:24:06;;;;;;;8.60;8.00;;;13.00;99.90;;;;;;5080972;28;20485;-61
2023/05/12 06:26:31;;;;;;;11.23;8.40;;;13.00;99.90;;;;;;5081259;28;20039;-60
2023/05/12 06:28:57;;;;;;;7.82;7.22;;;13.10;99.90;;;;;;5075724;28;20029;-60
2023/05/12 06:31:23;;;;;;;9.52;8.63;;;13.10;99.90;;;;;;5080435;28;20024;-60
2023/05/12 06:33:48;;;;;;;9.90;9.05;;;13.20;99.90;;;;;;5077174;28;20033;-61
2023/05/12 06:36:14;;;;;;;8.73;7.82;;;13.30;99.90;;;;;;5080427;28;20031;-61
2023/05/12 06:38:41;;;;;;;8.32;7.63;;;13.40;99.90;;;;;;5078607;28;20072;-61
2023/05/12 06:41:06;;;;;;;8.38;7.68;;;13.40;99.90;;;;;;5080036;28;20448;-62
2023/05/12 06:43:32;;;;;;;8.27;6.88;;;13.50;99.90;;;;;;5077446;28;20028;-63
2023/05/12 06:45:57;;;;;;;7.95;7.35;;;13.50;99.90;;;;;;5079297;28;20030;-64
2023/05/12 06:48:23;;;;;;;12.73;9.18;;;13.40;99.90;;;;;;5077321;28;20412;-62
2023/05/12 06:50:49;;;;;;;11.18;7.03;;;13.40;99.90;;;;;;5076537;28;20035;-63
2023/05/12 06:53:14;;;;;;;8.82;8.02;;;13.50;99.90;;;;;;5060310;28;20059;-62
2023/05/12 06:55:42;;;;;;;8.75;7.22;;;13.50;99.90;;;;;;5076488;28;20024;-62
2023/05/12 06:58:08;;;;;;;8.98;8.18;;;13.60;99.90;;;;;;5077292;28;20116;-62
2023/05/12 07:00:33;;;;;;;8.27;7.47;;;13.70;99.90;;;;;;5077962;28;20108;-63
2023/05/12 07:02:59;;;;;;;8.05;7.45;;;13.70;99.90;;;;;;5079322;28;20028;-63
2023/05/12 07:05:25;;;;;;;7.60;6.38;;;13.80;99.90;;;;;;5080245;28;20048;-61
2023/05/12 07:07:51;;;;;;;7.05;6.43;;;13.80;99.90;;;;;;5073893;28;20032;-62
2023/05/12 07:10:16;;;;;;;7.10;6.40;;;13.80;99.90;;;;;;5079815;28;20031;-63
2023/05/12 07:12:42;;;;;;;6.82;6.22;;;13.80;99.90;;;;;;5078724;28;20080;-62
2023/05/12 07:15:08;;;;;;;8.25;6.50;;;13.70;99.90;;;;;;5079855;28;20514;-62
2023/05/12 07:17:34;;;;;;;10.38;6.80;;;13.70;99.90;;;;;;5079167;28;20052;-61
2023/05/12 07:20:00;;;;;;;6.63;6.00;;;13.70;99.90;;;;;;5078944;28;20024;-60
2023/05/12 07:22:26;;;;;;;7.32;5.75;;;13.70;99.90;;;;;;5068348;28;20024;-60
2023/05/12 07:24:52;;;;;;;5.43;5.03;;;13.60;99.90;;;;;;5079874;28;20028;-60
2023/05/12 07:27:17;;;;;;;6.03;5.53;;;13.60;99.90;;;;;;5079374;28;20033;-62
2023/05/12 07:29:43;;;;;;;6.57;5.97;;;13.60;99.90;;;;;;5072876;28;20028;-60
2023/05/12 07:32:09;;;;;;;10.90;5.57;;;13.60;99.90;;;;;;5078815;28;20051;-60
2023/05/12 07:34:34;;;;;;;6.78;6.18;;;13.60;99.90;;;;;;5081635;28;20048;-61
2023/05/12 07:37:01;;;;;;;9.38;6.80;;;13.70;99.90;;;;;;5075692;28;20028;-61
2023/05/12 07:39:28;;;;;;;6.40;5.80;;;13.90;99.90;;;;;;5082020;28;20037;-61
2023/05/12 07:41:54;;;;;;;6.07;5.57;;;14.00;99.90;;;;;;5062004;28;20785;-61
2023/05/12 07:44:20;;;;;;;5.53;5.00;;;14.30;99.90;;;;;;5063503;28;20051;-61
2023/05/12 07:46:45;;;;;;;5.78;5.28;;;14.50;99.90;;;;;;5078031;28;20112;-61
2023/05/12 07:49:11;;;;;;;17.98;4.45;;;14.70;99.90;;;;;;5077976;28;20529;-61
2023/05/12 07:51:38;;;;;;;5.05;4.60;;;14.90;99.90;;;;;;5080733;28;20038;-60
2023/05/12 07:54:04;;;;;;;8.32;4.10;;;15.00;99.90;;;;;;5083978;28;20032;-63
2023/05/12 07:56:29;;;;;;;4.90;4.45;;;15.20;99.90;;;;;;5080888;28;20040;-62
2023/05/12 07:58:55;;;;;;;9.38;4.30;;;15.30;99.90;;;;;;5079237;28;20038;-62
2023/05/12 08:01:21;;;;;;;6.95;4.50;;;15.40;99.90;;;;;;5079151;28;20032;-62
2023/05/12 08:03:47;;;;;;;4.82;4.25;;;15.40;99.90;;;;;;5079458;28;20035;-63
2023/05/12 08:06:12;;;;;;;4.38;3.83;;;15.50;99.90;;;;;;5076806;28;20024;-63
2023/05/12 08:08:38;;;;;;;7.15;4.43;;;15.60;99.90;;;;;;5079517;28;20048;-62
2023/05/12 08:11:04;;;;;;;6.72;4.70;;;15.70;99.90;;;;;;5080609;28;20035;-63
2023/05/12 08:13:30;;;;;;;6.07;4.47;;;15.80;99.90;;;;;;5079000;28;20028;-62
2023/05/12 08:15:55;;;;;;;4.63;4.20;;;15.80;99.90;;;;;;5047103;28;20029;-63
2023/05/12 08:18:21;;;;;;;5.35;4.85;;;15.80;99.90;;;;;;5078874;28;20033;-64
2023/05/12 08:20:48;;;;;;;5.15;4.63;;;15.90;99.90;;;;;;5078103;28;20551;-62
2023/05/12 08:23:16;;;;;;;6.85;4.22;;;16.00;99.90;;;;;;5078516;28;20024;-63
2023/05/12 08:25:43;;;;;;;4.35;3.95;;;16.00;99.90;;;;;;5076125;28;20050;-64
2023/05/12 08:28:09;;;;;;;4.93;4.18;;;15.90;99.90;;;;;;5075133;28;20465;-62
2023/05/12 08:30:35;;;;;;;8.02;4.65;;;16.00;99.90;;;;;;5077115;28;20094;-63
2023/05/12 08:33:02;;;;;;;7.82;3.80;;;16.10;99.90;;;;;;5078259;28;20036;-63
2023/05/12 08:35:29;;;;;;;6.53;4.32;;;16.00;99.90;;;;;;5080445;28;20041;-62
2023/05/12 08:37:55;;;;;;;5.30;4.47;;;16.10;99.90;;;;;;5075969;28;20082;-62
2023/05/12 08:40:25;;;;;;;8.80;4.05;;;16.20;99.90;;;;;;5080100;28;20043;-58
2023/05/12 08:43:06;;;;;;;9.60;3.70;;;16.40;99.90;;;;;;5074810;28;20492;-62
2023/05/12 08:45:34;;;;;;;4.00;3.63;;;16.50;99.90;;;;;;5073028;28;20039;-62
2023/05/12 08:48:03;;;;;;;6.00;4.25;;;16.70;99.90;;;;;;5069919;28;20021;-63
2023/05/12 08:50:31;;;;;;;4.72;4.15;;;16.80;99.90;;;;;;5074894;28;20089;-63
2023/05/12 08:52:57;;;;;;;7.13;4.18;;;17.00;99.90;;;;;;5080170;28;20028;-63
2023/05/12 08:55:24;;;;;;;4.05;3.72;;;17.00;99.90;;;;;;5082788;28;20958;-62
2023/05/12 08:57:50;;;;;;;7.15;3.92;;;17.10;99.90;;;;;;5079325;28;21375;-62
2023/05/12 09:00:17;;;;;;;7.75;3.92;;;17.20;99.90;;;;;;5080838;28;20036;-63
2023/05/12 09:02:44;;;;;;;4.70;3.15;;;17.20;99.90;;;;;;5078686;28;20025;-63
2023/05/12 09:05:10;;;;;;;8.32;3.60;;;17.10;99.90;;;;;;5079361;28;20024;-63
2023/05/12 09:07:42;;;;;;;5.20;2.47;;;17.00;99.90;;;;;;5066473;28;20025;-63
2023/05/12 09:10:15;;;;;;;5.93;2.83;;;16.90;99.90;;;;;;5066676;28;20020;-63
2023/05/12 09:12:43;;;;;;;3.22;2.10;;;16.80;99.90;;;;;;5079643;28;20077;-63
2023/05/12 09:15:13;;;;;;;2.55;1.95;;;16.70;99.90;;;;;;5068898;28;20037;-63
2023/05/12 09:17:39;;;;;;;4.20;2.35;;;16.60;99.90;;;;;;5080799;28;20033;-63
2023/05/12 09:20:06;;;;;;;4.38;2.20;;;16.60;99.90;;;;;;5080961;28;20488;-62
2023/05/12 09:22:33;;;;;;;4.57;2.30;;;16.60;99.90;;;;;;5078452;28;20101;-63
2023/05/12 09:24:59;;;;;;;2.40;2.20;;;16.60;99.90;;;;;;5078076;28;20550;-63
2023/05/12 09:27:29;;;;;;;5.05;2.50;;;16.50;99.90;;;;;;5079286;28;20032;-62
2023/05/12 09:29:54;;;;;;;3.60;1.90;;;16.50;99.90;;;;;;5082253;28;20495;-63
2023/05/12 09:32:34;;;;;;;2.63;2.00;;;16.50;99.90;;;;;;5078563;28;20063;-63
2023/05/12 09:35:10;;;;;;;10.95;2.08;;;16.60;99.90;;;;;;5083004;28;20036;-63
2023/05/12 09:37:36;;;;;;;3.63;2.22;;;16.70;99.90;;;;;;5081447;28;20114;-62
2023/05/12 09:40:07;;;;;;;3.90;2.38;;;16.90;99.90;;;;;;5082150;28;20021;-62
2023/05/12 09:42:34;;;;;;;4.38;2.58;;;16.70;99.90;;;;;;5073880;28;20119;-63
2023/05/12 09:45:10;;;;;;;4.05;2.10;;;16.60;99.90;;;;;;5083724;28;20028;-61
2023/05/12 09:47:37;;;;;;;2.88;2.58;;;16.40;99.90;;;;;;5074356;28;20542;-62
2023/05/12 09:50:05;;;;;;;11.00;3.28;;;16.40;99.90;;;;;;5080984;28;20032;-61
2023/05/12 09:52:36;;;;;;;8.38;2.35;;;16.20;99.90;;;;;;5061900;28;20119;-62
2023/05/12 09:55:05;;;;;;;2.50;2.30;;;16.40;99.90;;;;;;5080191;28;20082;-63
2023/05/12 09:57:38;;;;;;;10.32;3.15;;;16.60;99.90;;;;;;5078080;28;20037;-63
2023/05/12 10:00:06;;;;;;;5.65;2.85;;;16.80;99.90;;;;;;5075820;28;20090;-63
2023/05/12 10:02:33;;;;;;;5.18;2.38;;;16.90;99.90;;;;;;5078930;28;20043;-62
2023/05/12 10:05:04;;;;;;;3.50;2.40;;;16.80;99.90;;;;;;5078367;28;20028;-63
2023/05/12 10:07:31;;;;;;;2.72;2.22;;;16.70;99.90;;;;;;5078263;28;20024;-63
2023/05/12 10:10:02;;;;;;;4.20;2.72;;;16.60;99.90;;;;;;5078285;28;20016;-62
2023/05/12 10:12:28;;;;;;;12.23;2.35;;;16.60;99.90;;;;;;5061345;28;20029;-63
2023/05/12 10:14:55;;;;;;;4.35;2.78;;;16.50;99.90;;;;;;5074783;28;20029;-61
2023/05/12 10:17:22;;;;;;;2.97;2.40;;;16.40;99.90;;;;;;5078504;28;20032;-62
2023/05/12 10:19:48;;;;;;;4.38;2.20;;;16.40;99.90;;;;;;5080363;28;20028;-62
2023/05/12 10:22:16;;;;;;;5.30;2.88;;;16.50;99.90;;;;;;5083898;28;20028;-62
2023/05/12 10:24:43;;;;;;;4.63;2.80;;;16.60;99.90;;;;;;5079785;28;21390;-63
2023/05/12 10:27:10;;;;;;;3.05;2.70;;;16.70;99.90;;;;;;5079727;28;20123;-63
2023/05/12 10:29:37;;;;;;;10.32;3.03;;;16.80;99.90;;;;;;5077261;28;20105;-64
2023/05/12 10:32:03;;;;;;;2.78;2.38;;;17.10;99.90;;;;;;5072943;28;20086;-62
2023/05/12 10:34:32;;;;;;;4.03;2.72;;;17.20;99.90;;;;;;5085679;28;20020;-63
2023/05/12 10:36:58;;;;;;;8.68;2.60;;;17.30;99.90;;;;;;5077752;28;20040;-63
2023/05/12 10:39:31;;;;;;;3.83;2.30;;;17.30;99.90;;;;;;5083475;28;20478;-64
2023/05/12 10:42:04;;;;;;;18.10;2.95;;;17.20;99.90;;;;;;5078040;28;20028;-63
2023/05/12 10:44:30;;;;;;;2.88;2.35;;;17.00;99.90;;;;;;5075145;28;20419;-62
2023/05/12 10:46:58;;;;;;;5.20;2.55;;;16.80;99.90;;;;;;5082792;28;20029;-63
2023/05/12 10:49:40;;;;;;;3.75;2.47;;;16.70;99.90;;;;;;5078224;28;20039;-61
2023/05/12 10:52:06;;;;;;;4.00;2.65;;;16.60;99.90;;;;;;5047902;28;20043;-61
2023/05/12 10:54:43;;;;;;;3.67;2.83;;;16.60;99.90;;;;;;5078161;28;20397;-61
2023/05/12 10:57:14;;;;;;;3.22;2.60;;;16.60;99.90;;;;;;5075684;28;20582;-63
2023/05/12 10:59:57;;;;;;;5.38;2.30;;;16.80;99.90;;;;;;5079726;28;20530;-63
2023/05/12 11:02:27;;;;;;;2.90;2.25;;;17.00;99.90;;;;;;5076735;28;20098;-62
2023/05/12 11:04:59;;;;;;;2.90;1.90;;;17.10;99.90;;;;;;5079374;28;20116;-61
2023/05/12 11:07:30;;;;;;;2.80;2.30;;;17.20;99.90;;;;;;5075370;28;20043;-62
2023/05/12 11:09:58;;;;;;;2.80;1.60;;;17.40;99.90;;;;;;5077683;28;20040;-63
2023/05/12 11:12:26;;;;;;;3.55;1.95;;;17.40;99.90;;;;;;5076497;28;20037;-64
2023/05/12 11:14:51;;;;;;;4.90;2.05;;;17.40;99.90;;;;;;5074613;28;20020;-62
2023/05/12 11:17:17;;;;;;;3.90;2.38;;;17.40;99.90;;;;;;5077752;28;20927;-61
2023/05/12 11:19:48;;;;;;;2.25;2.05;;;17.50;99.90;;;;;;5078748;28;20092;-61
2023/05/12 11:22:17;;;;;;;3.67;2.45;;;17.50;99.90;;;;;;5075133;28;20476;-61
2023/05/12 11:24:43;;;;;;;2.78;1.90;;;17.50;99.90;;;;;;5077404;28;20028;-65
2023/05/12 11:27:13;;;;;;;3.45;1.80;;;17.50;99.90;;;;;;5077887;28;20397;-61
2023/05/12 11:29:40;;;;;;;2.55;2.30;;;17.50;99.90;;;;;;5078370;28;20524;-62
2023/05/12 11:32:08;;;;;;;3.17;2.00;;;17.30;99.90;;;;;;5078543;28;20111;-61
2023/05/12 11:34:33;;;;;;;2.42;1.85;;;17.10;99.90;;;;;;5080145;28;20112;-62
2023/05/12 11:36:59;;;;;;;3.45;1.95;;;17.10;99.90;;;;;;5080893;28;20111;-62
2023/05/12 11:39:27;;;;;;;1.92;1.67;;;17.20;99.90;;;;;;5081645;28;20092;-63
2023/05/12 11:41:53;;;;;;;3.08;1.90;;;17.30;99.90;;;;;;5078438;28;20118;-60
2023/05/12 11:44:21;;;;;;;3.40;2.08;;;17.60;99.90;;;;;;5078695;28;20662;-61
2023/05/12 11:46:58;;;;;;;2.95;2.15;;;17.80;99.90;;;;;;5078856;28;20036;-62
2023/05/12 11:49:25;;;;;;;3.92;1.90;;;17.90;99.90;;;;;;5078072;28;20047;-63
2023/05/12 11:51:59;;;;;;;4.38;1.90;;;17.90;99.90;;;;;;5055584;28;20033;-62
2023/05/12 11:54:28;;;;;;;4.25;1.77;;;18.00;99.90;;;;;;5078682;28;20028;-60
2023/05/12 11:56:55;;;;;;;3.47;2.08;;;18.10;99.90;;;;;;5075829;28;20056;-62
2023/05/12 11:59:28;;;;;;;2.78;1.80;;;18.10;99.90;;;;;;5076809;28;20020;-62
2023/05/12 12:01:54;;;;;;;3.60;1.73;;;18.00;99.90;;;;;;5080118;28;20804;-61
2023/05/12 12:04:39;;;;;;;2.58;2.13;;;18.00;99.90;;;;;;5081125;28;20031;-62
2023/05/12 12:07:06;;;;;;;2.47;2.05;;;18.00;99.90;;;;;;5077077;28;20031;-62
2023/05/12 12:09:33;;;;;;;3.22;1.92;;;18.00;99.90;;;;;;5059461;28;20457;-62
2023/05/12 12:12:00;;;;;;;5.13;2.05;;;18.10;99.90;;;;;;5061294;28;20400;-62
2023/05/12 12:14:26;;;;;;;2.38;1.75;;;18.20;99.90;;;;;;5056359;28;20473;-61
2023/05/12 12:16:52;;;;;;;2.13;1.88;;;18.30;99.90;;;;;;5056412;28;20036;-62
2023/05/12 12:19:17;;;;;;;2.47;1.70;;;18.50;99.90;;;;;;5058421;28;20496;-61
2023/05/12 12:21:43;;;;;;;4.07;2.03;;;18.70;99.90;;;;;;5057364;28;20135;-62
2023/05/12 12:24:09;;;;;;;5.55;2.03;;;19.00;99.90;;;;;;5061039;28;20052;-61
2023/05/12 12:26:34;;;;;;;1.70;1.60;;;19.20;99.90;;;;;;5061524;28;20091;-61
2023/05/12 12:29:00;;;;;;;2.03;1.70;;;19.20;99.90;;;;;;5050704;28;20029;-62
2023/05/12 12:31:26;;;;;;;2.63;2.17;;;19.30;99.90;;;;;;5081702;28;20115;-62
2023/05/12 12:33:52;;;;;;;2.53;1.65;;;19.30;99.90;;;;;;5080219;28;20028;-61